createdAt,value
2022-11-28T00:02:26.353Z,58.10
2022-11-28T00:04:58.372Z,56.20
2022-11-28T00:07:29.877Z,53.20
2022-11-28T00:10:02.409Z,57.40
2022-11-28T00:12:33.807Z,58.70
2022-11-28T00:15:05.378Z,53.70
2022-11-28T00:17:36.636Z,57.60
2022-11-28T00:20:09.996Z,51.00
2022-11-28T00:22:41.650Z,53.00
2022-11-28T00:25:13.276Z,51.10
2022-11-28T00:27:44.890Z,54.10
2022-11-28T00:30:17.264Z,62.80
2022-11-28T00:32:48.761Z,60.40
2022-11-28T00:35:20.172Z,60.30
2022-11-28T00:37:51.534Z,63.70
2022-11-28T00:40:23.138Z,66.80
2022-11-28T00:42:54.452Z,67.80
2022-11-28T00:45:25.848Z,67.70
2022-11-28T00:47:57.293Z,63.00
2022-11-28T00:50:28.598Z,58.00
2022-11-28T00:52:59.981Z,57.70
2022-11-28T00:55:31.736Z,55.20
2022-11-28T00:58:03.282Z,61.90
2022-11-28T01:00:34.887Z,65.00
2022-11-28T01:03:08.142Z,61.80
2022-11-28T01:05:45.101Z,67.80
2022-11-28T01:08:16.767Z,69.30
2022-11-28T01:10:49.106Z,58.40
2022-11-28T01:13:20.840Z,61.10
2022-11-28T01:15:52.477Z,60.40
2022-11-28T01:18:24.107Z,56.70
2022-11-28T01:20:55.391Z,51.50
2022-11-28T01:23:27.234Z,54.40
2022-11-28T01:25:59.045Z,50.50
2022-11-28T01:28:30.972Z,50.90
2022-11-28T01:31:07.233Z,51.80
2022-11-28T01:33:39.035Z,51.80
2022-11-28T01:36:12.075Z,48.90
2022-11-28T01:38:43.623Z,47.50
2022-11-28T01:41:16.046Z,52.10
2022-11-28T01:46:45.428Z,59.70
2022-11-28T01:49:25.269Z,51.80
2022-11-28T01:52:11.935Z,54.60
2022-11-28T01:54:56.012Z,52.00
2022-11-28T01:57:29.760Z,60.10
2022-11-28T02:00:09.269Z,58.00
2022-11-28T02:02:43.923Z,57.40
2022-11-28T02:05:16.115Z,58.90
2022-11-28T02:07:49.086Z,61.50
2022-11-28T02:10:25.436Z,61.80
2022-11-28T02:13:16.765Z,61.70
2022-11-28T02:16:07.517Z,62.10
2022-11-28T02:18:52.135Z,64.80
2022-11-28T02:21:41.601Z,67.10
2022-11-28T02:24:55.063Z,61.40
2022-11-28T02:27:57.044Z,60.50
2022-11-28T02:30:38.439Z,54.60
2022-11-28T02:33:19.763Z,60.10
2022-11-28T02:36:04.335Z,70.20
2022-11-28T02:38:52.678Z,68.80
2022-11-28T02:41:32.151Z,62.90
2022-11-28T02:44:14.780Z,65.40
2022-11-28T02:46:58.540Z,65.60
2022-11-28T02:49:35.780Z,63.30
2022-11-28T02:52:15.201Z,65.40
2022-11-28T02:54:47.767Z,59.40
2022-11-28T02:57:19.515Z,65.30
2022-11-28T02:59:52.230Z,58.80
2022-11-28T03:02:29.492Z,62.90
2022-11-28T03:05:09.471Z,58.10
2022-11-28T03:08:10.937Z,58.50
2022-11-28T03:10:52.501Z,53.80
2022-11-28T03:13:34.207Z,51.90
2022-11-28T03:16:15.836Z,53.40
2022-11-28T03:18:58.204Z,53.50
2022-11-28T03:21:53.675Z,49.90
2022-11-28T03:27:38.387Z,50.60
2022-11-28T03:30:25.117Z,51.80
2022-11-28T03:33:16.365Z,46.10
2022-11-28T03:36:08.056Z,48.70
2022-11-28T03:39:10.022Z,45.60
2022-11-28T03:41:54.608Z,46.50
2022-11-28T03:44:55.044Z,47.00
2022-11-28T03:47:47.230Z,51.10
2022-11-28T03:50:36.598Z,51.20
2022-11-28T03:53:20.903Z,53.70
2022-11-28T03:59:40.995Z,48.70
2022-11-28T04:02:57.273Z,50.30
2022-11-28T04:06:20.341Z,49.50
2022-11-28T04:09:14.335Z,44.30
2022-11-28T04:12:09.950Z,41.50
2022-11-28T04:15:06.084Z,39.50
2022-11-28T04:17:59.586Z,43.40
2022-11-28T04:20:40.531Z,43.60
2022-11-28T04:23:21.737Z,46.50
2022-11-28T04:26:01.604Z,51.40
2022-11-28T04:39:27.833Z,47.10
2022-11-28T04:42:03.645Z,43.60
2022-11-28T04:44:42.481Z,43.50
2022-11-28T04:47:14.845Z,41.40
2022-11-28T04:49:47.846Z,41.90
2022-11-28T04:52:27.087Z,45.70
2022-11-28T04:55:02.744Z,43.40
2022-11-28T04:57:40.053Z,42.90
2022-11-28T05:00:14.503Z,39.40
2022-11-28T05:03:02.665Z,43.50
2022-11-28T05:05:43.178Z,41.20
2022-11-28T05:08:15.298Z,47.70
2022-11-28T05:10:46.696Z,51.60
2022-11-28T05:13:18.150Z,48.90
2022-11-28T05:15:50.919Z,44.40
2022-11-28T05:18:22.410Z,42.40
2022-11-28T05:20:53.802Z,44.10
2022-11-28T05:23:29.364Z,38.80
2022-11-28T05:26:00.769Z,41.60
2022-11-28T05:28:32.038Z,46.80
2022-11-28T05:31:04.206Z,42.50
2022-11-28T05:33:36.234Z,79.50
2022-11-28T05:36:13.386Z,51.50
2022-11-28T05:38:45.667Z,56.60
2022-11-28T05:41:24.870Z,56.30
2022-11-28T05:43:57.013Z,50.00
2022-11-28T05:46:29.417Z,70.00
2022-11-28T05:49:00.869Z,47.10
2022-11-28T05:51:32.629Z,47.30
2022-11-28T05:54:04.406Z,45.60
2022-11-28T05:56:42.095Z,43.90
2022-11-28T05:59:14.561Z,40.90
2022-11-28T06:01:47.527Z,44.90
2022-11-28T06:04:21.353Z,55.80
2022-11-28T06:06:53.261Z,55.70
2022-11-28T06:09:26.092Z,50.00
2022-11-28T06:11:57.818Z,40.90
2022-11-28T06:14:30.380Z,40.80
2022-11-28T06:17:08.308Z,43.40
2022-11-28T06:19:42.111Z,46.40
2022-11-28T06:22:14.452Z,46.90
2022-11-28T06:24:46.311Z,42.30
2022-11-28T06:27:20.975Z,43.60
2022-11-28T06:29:54.830Z,43.30
2022-11-28T06:32:30.213Z,42.50
2022-11-28T06:35:17.629Z,41.00
2022-11-28T06:37:51.428Z,44.30
2022-11-28T06:40:25.095Z,40.00
2022-11-28T06:42:56.570Z,48.20
2022-11-28T06:45:29.189Z,45.00
2022-11-28T06:55:34.928Z,37.60
2022-11-28T06:58:52.156Z,35.90
2022-11-28T07:04:48.223Z,36.40
2022-11-28T07:07:19.924Z,32.60
2022-11-28T07:10:02.019Z,38.20
2022-11-28T07:12:33.458Z,41.40
2022-11-28T07:15:05.078Z,34.30
2022-11-28T07:17:37.237Z,50.10
2022-11-28T07:20:10.647Z,57.90
2022-11-28T07:22:44.209Z,48.20
2022-11-28T07:25:16.719Z,47.40
2022-11-28T07:27:48.811Z,38.80
2022-11-28T07:30:21.574Z,48.50
2022-11-28T07:32:59.020Z,47.90
2022-11-28T07:35:41.118Z,47.60
2022-11-28T07:38:26.429Z,47.90
2022-11-28T07:41:03.812Z,42.50
2022-11-28T07:43:35.459Z,41.70
2022-11-28T07:46:17.436Z,45.20
2022-11-28T07:48:57.197Z,41.80
2022-11-28T07:51:51.519Z,46.40
2022-11-28T07:54:45.624Z,38.40
2022-11-28T07:57:33.635Z,36.40
2022-11-28T08:00:09.158Z,38.00
2022-11-28T08:02:55.677Z,31.70
2022-11-28T08:05:31.092Z,31.80
2022-11-28T08:08:04.388Z,29.80
2022-11-28T08:10:43.504Z,29.80
2022-11-28T08:13:16.882Z,33.30
2022-11-28T08:15:52.011Z,32.30
2022-11-28T08:18:31.163Z,35.90
2022-11-28T08:21:11.962Z,36.70
2022-11-28T08:23:44.409Z,36.60
2022-11-28T08:26:18.447Z,53.90
2022-11-28T08:28:50.987Z,45.50
2022-11-28T08:31:24.278Z,40.90
2022-11-28T08:33:57.251Z,51.10
2022-11-28T08:36:29.687Z,53.10
2022-11-28T08:39:22.830Z,50.10
2022-11-28T08:41:57.559Z,55.10
2022-11-28T08:44:30.872Z,69.50
2022-11-28T08:47:02.251Z,46.90
2022-11-28T08:49:34.239Z,51.00
2022-11-28T08:52:08.220Z,46.80
2022-11-28T08:54:42.012Z,57.50
2022-11-28T08:57:14.323Z,41.80
2022-11-28T08:59:46.354Z,38.00
2022-11-28T09:02:22.004Z,38.70
2022-11-28T09:05:05.079Z,40.30
2022-11-28T09:07:41.313Z,41.10
2022-11-28T09:10:13.737Z,39.70
2022-11-28T09:12:45.784Z,35.70
2022-11-28T09:15:24.615Z,38.10
2022-11-28T09:18:01.727Z,36.80
2022-11-28T09:20:38.492Z,44.80
2022-11-28T09:23:11.293Z,61.10
2022-11-28T09:25:46.049Z,65.60
2022-11-28T09:28:32.288Z,47.90
2022-11-28T09:31:10.174Z,41.00
2022-11-28T09:33:55.550Z,38.70
2022-11-28T09:39:50.254Z,36.10
2022-11-28T09:43:00.550Z,39.00
2022-11-28T09:45:52.224Z,35.30
2022-11-28T09:48:30.830Z,41.80
2022-11-28T09:51:08.088Z,39.80
2022-11-28T09:53:49.896Z,41.30
2022-11-28T09:56:29.579Z,40.50
2022-11-28T09:59:27.244Z,46.40
2022-11-28T10:02:33.752Z,63.80
2022-11-28T10:09:04.292Z,48.30
2022-11-28T10:09:08.909Z,41.20
2022-11-28T10:15:36.500Z,41.00
2022-11-28T10:18:28.708Z,43.60
2022-11-28T10:21:23.825Z,44.40
2022-11-28T10:24:01.910Z,39.80
2022-11-28T10:26:38.669Z,44.70
2022-11-28T10:29:21.225Z,43.10
2022-11-28T10:31:57.186Z,42.90
2022-11-28T10:34:42.803Z,41.40
2022-11-28T10:37:21.270Z,42.30
2022-11-28T10:39:53.326Z,43.20
2022-11-28T10:42:30.991Z,44.90
2022-11-28T10:45:20.010Z,43.50
2022-11-28T10:48:38.990Z,40.40
2022-11-28T10:51:23.123Z,42.00
2022-11-28T10:54:08.581Z,39.30
2022-11-28T10:56:53.129Z,37.10
2022-11-28T10:59:34.529Z,42.10
2022-11-28T11:02:45.426Z,41.60
2022-11-28T11:05:47.784Z,36.40
2022-11-28T11:08:31.545Z,38.10
2022-11-28T11:11:08.294Z,40.60
2022-11-28T11:14:00.338Z,42.60
2022-11-28T11:16:50.288Z,39.20
2022-11-28T11:19:30.634Z,37.20
2022-11-28T11:22:16.558Z,40.80
2022-11-28T11:25:05.564Z,43.00
2022-11-28T11:27:38.991Z,38.90
2022-11-28T11:30:27.199Z,37.10
2022-11-28T11:33:01.011Z,37.00
2022-11-28T11:35:36.119Z,38.40
2022-11-28T11:38:32.256Z,38.90
2022-11-28T11:41:30.889Z,32.60
2022-11-28T11:44:30.832Z,36.60
2022-11-28T11:47:05.530Z,39.80
2022-11-28T11:52:16.247Z,41.10
2022-11-28T11:54:59.209Z,33.60
2022-11-28T11:57:34.504Z,54.60
2022-11-28T12:00:13.231Z,61.70
2022-11-28T12:02:51.296Z,53.60
2022-11-28T12:05:25.556Z,48.40
2022-11-28T12:08:05.358Z,42.30
2022-11-28T12:10:46.178Z,42.10
2022-11-28T12:13:28.496Z,40.00
2022-11-28T12:16:10.733Z,38.30
2022-11-28T12:18:54.046Z,41.80
2022-11-28T12:21:36.699Z,43.20
2022-11-28T12:24:20.755Z,38.20
2022-11-28T12:27:08.407Z,39.60
2022-11-28T12:30:05.642Z,41.30
2022-11-28T12:38:11.711Z,46.20
2022-11-28T12:40:17.373Z,37.10
2022-11-28T12:43:09.883Z,39.20
2022-11-28T12:46:13.061Z,37.50
2022-11-28T12:49:11.528Z,40.60
2022-11-28T12:55:41.932Z,37.10
2022-11-28T12:56:21.641Z,37.00
2022-11-28T12:58:31.252Z,37.40
2022-11-28T13:01:19.755Z,41.10
2022-11-28T13:04:04.202Z,37.50
2022-11-28T13:06:57.628Z,41.30
2022-11-28T13:09:34.897Z,39.20
2022-11-28T13:12:27.745Z,36.20
2022-11-28T13:15:15.274Z,34.80
2022-11-28T13:17:56.025Z,35.90
2022-11-28T13:20:42.507Z,34.60
2022-11-28T13:23:30.650Z,37.40
2022-11-28T13:26:14.547Z,38.40
2022-11-28T13:29:10.286Z,41.40
2022-11-28T13:32:02.240Z,40.80
2022-11-28T13:34:52.155Z,42.90
2022-11-28T13:40:48.669Z,43.40
2022-11-28T13:43:33.145Z,41.10
2022-11-28T13:49:15.129Z,38.90
2022-11-28T13:51:49.013Z,45.20
2022-11-28T13:54:49.132Z,45.40
2022-11-28T13:57:40.170Z,39.80
2022-11-28T14:00:24.622Z,42.70
2022-11-28T14:03:00.329Z,43.40
2022-11-28T14:05:45.708Z,39.80
2022-11-28T14:08:33.533Z,37.10
2022-11-28T14:11:27.633Z,46.50
2022-11-28T14:14:15.910Z,45.90
2022-11-28T14:17:09.967Z,41.90
2022-11-28T14:20:01.371Z,47.40
2022-11-28T14:22:52.766Z,40.90
2022-11-28T14:25:32.740Z,40.60
2022-11-28T14:28:07.095Z,38.30
2022-11-28T14:30:42.212Z,43.10
2022-11-28T14:33:22.011Z,42.10
2022-11-28T14:36:24.539Z,43.20
2022-11-28T14:39:35.305Z,42.70
2022-11-28T14:45:47.036Z,38.70
2022-11-28T14:48:34.292Z,42.80
2022-11-28T14:51:05.867Z,43.50
2022-11-28T14:53:51.690Z,41.50
2022-11-28T14:56:28.169Z,46.00
2022-11-28T14:59:05.003Z,50.90
2022-11-28T15:01:51.897Z,45.60
2022-11-28T15:04:47.575Z,47.50
2022-11-28T15:07:37.749Z,50.70
2022-11-28T15:10:18.625Z,45.70
2022-11-28T15:13:04.183Z,42.70
2022-11-28T15:15:37.549Z,37.90
2022-11-28T15:18:12.695Z,44.60
2022-11-28T15:21:01.872Z,37.80
2022-11-28T15:24:21.829Z,43.20
2022-11-28T15:26:58.517Z,42.00
2022-11-28T15:29:35.252Z,41.70
2022-11-28T15:33:30.028Z,39.30
2022-11-28T15:43:44.749Z,37.40
2022-11-28T15:46:26.085Z,39.90
2022-11-28T15:49:02.936Z,39.90
2022-11-28T15:55:50.762Z,41.30
2022-11-28T15:58:42.484Z,40.50
2022-11-28T15:58:48.567Z,36.60
2022-11-28T16:02:10.503Z,39.10
2022-11-28T16:06:15.889Z,41.90
2022-11-28T16:08:40.910Z,44.00
2022-11-28T16:15:08.861Z,42.90
2022-11-28T16:18:02.663Z,38.00
2022-11-28T16:21:19.161Z,38.00
2022-11-28T16:25:08.078Z,35.90
2022-11-28T16:36:17.719Z,32.60
2022-11-28T16:40:04.965Z,33.20
2022-11-28T16:46:17.251Z,33.30
2022-11-28T16:49:14.797Z,33.20
2022-11-28T16:52:04.289Z,37.20
2022-11-28T16:55:11.987Z,38.70
2022-11-28T17:03:06.445Z,45.90
2022-11-28T17:05:03.632Z,33.70
2022-11-28T17:10:26.388Z,32.50
2022-11-28T17:14:11.815Z,34.90
2022-11-28T17:17:35.172Z,39.10
2022-11-28T17:24:18.087Z,45.70
2022-11-28T17:31:10.741Z,39.10
2022-11-28T17:43:50.131Z,34.80
2022-11-28T17:46:53.808Z,63.10
2022-11-28T17:49:34.614Z,38.60
2022-11-28T17:52:12.136Z,35.70
2022-11-28T17:54:48.515Z,31.30
2022-11-28T17:57:26.525Z,31.30
2022-11-28T18:00:09.682Z,48.80
2022-11-28T18:02:42.131Z,53.60
2022-11-28T18:05:14.186Z,37.90
2022-11-28T18:07:46.318Z,44.60
2022-11-28T18:10:18.574Z,31.90
2022-11-28T18:12:50.735Z,30.90
2022-11-28T18:15:23.531Z,33.70
2022-11-28T18:17:58.092Z,31.30
2022-11-28T18:20:29.688Z,33.10
2022-11-28T18:23:02.182Z,34.90
2022-11-28T18:25:39.465Z,37.70
2022-11-28T18:40:08.762Z,41.60
2022-11-28T18:40:25.878Z,47.50
2022-11-28T18:42:35.786Z,38.40
2022-11-28T18:48:06.749Z,32.70
2022-11-28T18:50:40.317Z,32.10
2022-11-28T18:53:12.688Z,29.90
2022-11-28T18:55:45.118Z,37.10
2022-11-28T18:58:17.817Z,38.40
2022-11-28T19:00:50.061Z,43.40
2022-11-28T19:03:23.551Z,38.30
2022-11-28T19:06:25.988Z,39.20
2022-11-28T19:09:08.973Z,36.60
2022-11-28T19:11:47.900Z,35.70
2022-11-28T19:14:26.251Z,37.80
2022-11-28T19:19:47.280Z,42.30
2022-11-28T19:22:19.977Z,38.20
2022-11-28T19:24:52.302Z,33.00
2022-11-28T19:27:24.864Z,33.60
2022-11-28T19:29:57.932Z,32.70
2022-11-28T19:32:29.623Z,32.90
2022-11-28T19:35:15.298Z,31.10
2022-11-28T19:37:50.302Z,29.10
2022-11-28T19:40:28.695Z,35.00
2022-11-28T19:43:07.837Z,31.60
2022-11-28T19:45:41.476Z,28.80
2022-11-28T19:48:22.662Z,25.80
2022-11-28T19:50:59.664Z,27.40
2022-11-28T19:53:34.083Z,31.70
2022-11-28T19:56:13.221Z,26.20
2022-11-28T19:58:49.382Z,29.30
2022-11-28T20:01:25.230Z,30.40
2022-11-28T20:03:58.117Z,29.40
2022-11-28T20:06:32.307Z,29.10
2022-11-28T20:09:09.954Z,30.60
2022-11-28T20:11:42.462Z,31.60
2022-11-28T20:14:19.090Z,48.50
2022-11-28T20:16:51.923Z,48.90
2022-11-28T20:19:24.254Z,42.00
2022-11-28T20:21:59.587Z,36.30
2022-11-28T20:24:31.996Z,39.60
2022-11-28T20:27:04.449Z,32.90
2022-11-28T20:29:39.757Z,46.10
2022-11-28T20:32:12.283Z,46.40
2022-11-28T20:34:44.261Z,41.80
2022-11-28T20:37:16.626Z,36.30
2022-11-28T20:39:48.769Z,35.20
2022-11-28T20:42:21.310Z,32.50
2022-11-28T20:45:01.738Z,37.70
2022-11-28T20:48:03.951Z,34.30
2022-11-28T20:50:37.891Z,33.90
2022-11-28T20:53:13.107Z,37.40
2022-11-28T20:56:00.046Z,36.00
2022-11-28T20:58:32.888Z,35.00
2022-11-28T21:01:07.089Z,33.70
2022-11-28T21:03:40.572Z,38.50
2022-11-28T21:06:15.025Z,32.80
2022-11-28T21:08:57.518Z,44.10
2022-11-28T21:11:55.798Z,39.10
2022-11-28T21:14:24.614Z,38.40
2022-11-28T21:17:23.778Z,38.50
2022-11-28T21:20:10.607Z,38.20
2022-11-28T21:22:51.688Z,39.00
2022-11-28T21:25:23.887Z,41.50
2022-11-28T21:27:58.371Z,40.20
2022-11-28T21:30:32.277Z,39.60
2022-11-28T21:33:14.700Z,36.70
2022-11-28T21:35:47.738Z,38.00
2022-11-28T21:38:19.403Z,37.70
2022-11-28T21:40:59.124Z,42.70
2022-11-28T21:43:30.759Z,37.30
2022-11-28T21:46:07.531Z,35.70
2022-11-28T21:48:39.160Z,40.50
2022-11-28T21:51:21.858Z,38.50
2022-11-28T21:53:54.106Z,42.90
2022-11-28T21:56:27.767Z,37.60
2022-11-28T21:59:02.151Z,41.30
2022-11-28T22:01:41.379Z,36.00
2022-11-28T22:04:24.714Z,38.70
2022-11-28T22:07:00.160Z,40.00
2022-11-28T22:09:48.356Z,42.20
2022-11-28T22:12:20.161Z,38.90
2022-11-28T22:14:52.630Z,36.60
2022-11-28T22:17:24.210Z,39.30
2022-11-28T22:19:55.897Z,33.50
2022-11-28T22:22:28.595Z,32.10
2022-11-28T22:25:02.721Z,32.90
2022-11-28T22:27:39.495Z,34.20
2022-11-28T22:30:16.508Z,35.20
2022-11-28T22:33:04.180Z,32.40
2022-11-28T22:35:43.973Z,34.90
2022-11-28T22:38:17.808Z,35.60
2022-11-28T22:40:49.887Z,34.60
2022-11-28T22:43:21.915Z,31.20
2022-11-28T22:45:59.922Z,30.50
2022-11-28T22:48:32.649Z,36.00
2022-11-28T22:51:09.734Z,32.00
2022-11-28T22:53:44.096Z,32.80
2022-11-28T22:56:17.199Z,30.30
2022-11-28T22:58:49.653Z,33.10
2022-11-28T23:01:22.922Z,30.50
2022-11-28T23:03:55.345Z,34.60
2022-11-28T23:06:38.330Z,30.30
2022-11-28T23:09:13.039Z,31.80
2022-11-28T23:14:17.256Z,26.20
2022-11-28T23:16:48.677Z,30.70
2022-11-28T23:19:26.672Z,28.80
2022-11-28T23:21:58.074Z,27.20
2022-11-28T23:24:30.167Z,29.30
2022-11-28T23:28:01.020Z,30.30
2022-11-28T23:30:01.218Z,29.80
2022-11-28T23:32:41.471Z,27.70
2022-11-28T23:35:14.543Z,25.70
2022-11-28T23:37:48.652Z,28.20
2022-11-28T23:40:20.357Z,24.60
2022-11-28T23:42:51.756Z,28.40
2022-11-28T23:45:24.468Z,29.50
2022-11-28T23:47:57.223Z,27.00
2022-11-28T23:50:28.996Z,28.30
2022-11-28T23:53:00.411Z,24.90
2022-11-28T23:55:31.804Z,26.60
2022-11-28T23:58:03.275Z,30.50
